Time;durP1;ratioP1;P1;durP2;ratioP2;P2;SDS_P1;SDS_P2;PMS_P1;PMS_P2;Temp;Humidity;BMP_temperature;BMP_pressure;BME280_temperature;BME280_humidity;BME280_pressure;Samples;Min_cycle;Max_cycle;Signal;HPM_P1;HPM_P2
2021/12/03 00:01:42;;;;;;;;;23.50;18.50;;;;;5.97;64.83;101254.69;4962795;28;45330;-85
2021/12/03 00:04:07;;;;;;;;;23.00;19.00;;;;;5.92;65.02;101241.41;4962455;28;45492;-84
2021/12/03 00:06:35;;;;;;;;;25.25;21.00;;;;;5.86;64.63;101229.75;4978965;28;45528;-84
2021/12/03 00:09:01;;;;;;;;;24.25;19.00;;;;;5.91;64.73;101238.69;4943678;28;47743;-85
2021/12/03 00:11:27;;;;;;;;;21.50;20.00;;;;;5.83;64.81;101222.69;4997338;28;45321;-84
2021/12/03 00:13:52;;;;;;;;;20.25;20.00;;;;;5.96;64.72;101263.38;4968592;28;45498;-85
2021/12/03 00:16:18;;;;;;;;;22.25;19.75;;;;;5.96;65.03;101259.00;4958163;28;53265;-83
2021/12/03 00:18:43;;;;;;;;;27.00;18.00;;;;;5.94;64.83;101251.94;4976524;28;45353;-84
2021/12/03 00:21:10;;;;;;;;;21.00;20.00;;;;;5.92;64.74;101244.03;4962037;28;46143;-84
2021/12/03 00:23:35;;;;;;;;;25.75;22.00;;;;;5.94;64.87;101247.59;4977087;28;45448;-84
2021/12/03 00:26:01;;;;;;;;;26.00;19.25;;;;;5.94;64.99;101246.72;4975806;28;45382;-85
2021/12/03 00:28:29;;;;;;;;;25.75;18.75;;;;;5.89;64.93;101237.75;4975246;28;45671;-83
2021/12/03 00:30:55;;;;;;;;;24.50;17.00;;;;;5.97;65.14;101254.69;4943119;28;45273;-85
2021/12/03 00:33:21;;;;;;;;;22.75;18.50;;;;;6.00;65.10;101249.53;4976820;28;45374;-83
2021/12/03 00:35:46;;;;;;;;;31.25;20.50;;;;;5.99;65.05;101235.56;4979080;28;45535;-87
2021/12/03 00:38:12;;;;;;;;;22.25;18.50;;;;;6.00;64.73;101239.94;4961341;28;67477;-84
2021/12/03 00:40:39;;;;;;;;;25.25;19.00;;;;;6.01;65.17;101251.31;4965495;28;45407;-86
2021/12/03 00:43:04;;;;;;;;;19.75;17.25;;;;;5.99;64.95;101261.75;4966161;28;45364;-86
2021/12/03 00:45:31;;;;;;;;;24.25;17.00;;;;;6.01;65.21;101262.69;4980301;28;45314;-83
2021/12/03 00:47:57;;;;;;;;;28.25;17.50;;;;;6.04;64.92;101261.94;4978469;28;46368;-85
2021/12/03 00:50:23;;;;;;;;;17.50;13.75;;;;;6.03;65.10;101262.78;4978839;28;45358;-84
2021/12/03 00:52:48;;;;;;;;;18.00;16.00;;;;;6.05;65.08;101266.34;4962267;28;45495;-85
2021/12/03 00:55:15;;;;;;;;;20.25;19.00;;;;;6.02;64.91;101259.28;4965622;28;45458;-84
2021/12/03 00:57:40;;;;;;;;;21.50;18.75;;;;;6.05;64.79;101258.47;4963216;28;47387;-84
2021/12/03 01:00:09;;;;;;;;;34.50;25.00;;;;;6.06;65.09;101260.25;4988005;28;45293;-85
2021/12/03 01:02:35;;;;;;;;;42.25;32.50;;;;;6.01;64.99;101259.19;4964659;28;45335;-86
2021/12/03 01:05:00;;;;;;;;;73.75;57.00;;;;;6.09;65.10;101269.97;4977871;28;55029;-84
2021/12/03 01:07:25;;;;;;;;;91.75;58.75;;;;;6.10;65.15;101269.13;4977287;28;66354;-84
2021/12/03 01:09:51;;;;;;;;;80.50;57.00;;;;;6.12;65.24;101268.31;4979623;28;45459;-83
2021/12/03 01:12:16;;;;;;;;;84.25;60.25;;;;;6.14;65.25;101274.53;4971531;28;52169;-85
2021/12/03 01:14:42;;;;;;;;;80.25;59.75;;;;;6.14;65.25;101269.28;4962473;28;57531;-85
2021/12/03 01:17:07;;;;;;;;;71.00;52.25;;;;;6.20;65.14;101269.50;4981496;28;45449;-83
2021/12/03 01:19:32;;;;;;;;;70.75;54.00;;;;;6.15;65.17;101271.06;4981350;28;45259;-84
2021/12/03 01:21:58;;;;;;;;;70.75;51.00;;;;;6.23;65.07;101282.75;4980769;28;45361;-84
2021/12/03 01:24:23;;;;;;;;;62.00;45.50;;;;;6.23;64.94;101282.75;4965027;28;46414;-85
2021/12/03 01:26:54;;;;;;;;;58.50;46.00;;;;;6.16;64.96;101264.97;4983850;28;47171;-84
2021/12/03 01:29:19;;;;;;;;;39.25;28.75;;;;;6.20;65.11;101280.00;4977947;28;45363;-83
2021/12/03 01:31:44;;;;;;;;;39.75;29.50;;;;;6.28;65.11;101282.88;4963640;28;45410;-84
2021/12/03 01:34:10;;;;;;;;;39.75;29.50;;;;;6.33;65.24;101285.66;4965113;28;49032;-85
2021/12/03 01:36:35;;;;;;;;;34.75;32.00;;;;;6.30;65.06;101276.88;4960426;28;66993;-85
2021/12/03 01:39:01;;;;;;;;;31.00;25.50;;;;;6.36;65.04;101280.53;4981347;28;45319;-83
2021/12/03 01:41:27;;;;;;;;;40.00;29.25;;;;;6.33;65.06;101278.69;4981546;28;45416;-83
2021/12/03 01:43:59;;;;;;;;;26.00;18.50;;;;;6.34;64.86;101272.63;4993043;28;45600;-86
2021/12/03 01:46:24;;;;;;;;;20.25;14.00;;;;;6.30;65.17;101265.50;4975984;28;47030;-87
2021/12/03 01:48:50;;;;;;;;;27.00;21.75;;;;;6.38;64.88;101282.38;4964011;28;55353;-85
2021/12/03 01:51:15;;;;;;;;;12.00;11.75;;;;;6.36;65.08;101289.31;4980971;28;45353;-85
2021/12/03 01:53:41;;;;;;;;;22.75;16.50;;;;;6.30;65.04;101292.59;4981088;28;45322;-83
2021/12/03 01:56:11;;;;;;;;;20.75;18.00;;;;;6.38;64.81;101295.47;4997894;28;46654;-83
2021/12/03 01:58:37;;;;;;;;;17.00;14.00;;;;;6.43;65.06;101300.91;4948324;28;46382;-84
2021/12/03 02:01:05;;;;;;;;;22.00;15.00;;;;;6.45;65.05;101296.63;4955924;28;45399;-83
2021/12/03 02:03:33;;;;;;;;;14.25;12.50;;;;;6.41;65.08;101295.59;4975915;23;45571;-85
2021/12/03 02:05:58;;;;;;;;;16.75;14.50;;;;;6.46;64.81;101288.78;4992386;28;48070;-84
2021/12/03 02:08:24;;;;;;;;;19.25;16.50;;;;;6.40;64.85;101285.06;4995020;28;45624;-85
2021/12/03 02:10:53;;;;;;;;;20.00;14.50;;;;;6.48;64.99;101296.69;5018114;28;45312;-83
2021/12/03 02:13:18;;;;;;;;;17.25;14.00;;;;;6.46;65.02;101285.28;4999547;28;46433;-84
2021/12/03 02:15:44;;;;;;;;;18.50;12.00;;;;;6.47;65.04;101287.06;5017819;28;46309;-84
2021/12/03 02:18:10;;;;;;;;;19.75;13.50;;;;;6.40;64.99;101275.47;4999073;22;45702;-85
2021/12/03 02:20:49;;;;;;;;;17.50;12.00;;;;;6.50;65.00;101300.28;5269095;22;45422;-84
2021/12/03 02:23:18;;;;;;;;;15.50;14.75;;;;;6.48;65.06;101271.34;4983636;23;45667;-83
2021/12/03 02:25:44;;;;;;;;;12.25;11.00;;;;;6.48;64.90;101287.09;4962775;28;47896;-85
2021/12/03 02:28:10;;;;;;;;;17.50;12.75;;;;;6.49;65.14;101296.75;4977204;28;45424;-85
2021/12/03 02:30:38;;;;;;;;;14.00;13.00;;;;;6.48;64.99;101296.69;4980012;28;45353;-84
2021/12/03 02:33:06;;;;;;;;;13.50;10.75;;;;;6.48;65.22;101281.84;4981050;28;45331;-85
2021/12/03 02:35:36;;;;;;;;;13.50;11.00;;;;;6.55;64.99;101286.50;4977085;28;47167;-84
2021/12/03 02:38:01;;;;;;;;;15.00;11.25;;;;;6.51;65.18;101265.34;4990633;28;45578;-83
2021/12/03 02:40:27;;;;;;;;;13.00;10.00;;;;;6.55;65.15;101282.94;4960866;28;45455;-84
2021/12/03 02:42:53;;;;;;;;;11.75;11.75;;;;;6.52;65.01;101275.88;4959114;28;45444;-86
2021/12/03 02:45:18;;;;;;;;;14.50;11.50;;;;;6.59;64.92;101290.09;4989337;28;47236;-83
2021/12/03 02:47:44;;;;;;;;;9.50;8.50;;;;;6.57;65.11;101270.78;4978814;28;53740;-83
2021/12/03 02:50:15;;;;;;;;;12.75;11.75;;;;;6.59;65.10;101270.84;4950974;28;45334;-83
2021/12/03 02:52:41;;;;;;;;;14.25;9.75;;;;;6.62;65.16;101270.97;4970566;28;45363;-84
2021/12/03 02:55:07;;;;;;;;;13.00;9.25;;;;;6.65;65.24;101264.06;4957013;28;46431;-85
2021/12/03 02:57:32;;;;;;;;;10.25;7.75;;;;;6.68;65.21;101258.94;4988242;28;45342;-86
2021/12/03 02:59:58;;;;;;;;;6.50;6.50;;;;;6.73;64.91;101246.84;4960390;28;45343;-84
2021/12/03 03:02:23;;;;;;;;;10.25;7.25;;;;;6.70;64.79;101236.25;4988960;28;45450;-85
2021/12/03 03:04:52;;;;;;;;;9.25;7.25;;;;;6.76;64.67;101225.94;5027598;23;45717;-84
2021/12/03 03:07:20;;;;;;;;;12.25;9.00;;;;;6.72;64.56;101217.94;5015317;22;45521;-84
2021/12/03 03:09:49;;;;;;;;;13.00;9.00;;;;;6.87;64.56;101238.53;5036670;28;45444;-84
2021/12/03 03:12:14;;;;;;;;;9.50;8.50;;;;;6.86;64.57;101235.00;5023801;22;45367;-84
2021/12/03 03:14:45;;;;;;;;;11.25;7.00;;;;;6.82;64.72;101210.41;4985457;28;66706;-83
2021/12/03 03:17:13;;;;;;;;;17.50;9.50;;;;;6.95;64.59;101231.81;5008050;28;45292;-84
2021/12/03 03:19:38;;;;;;;;;8.75;7.00;;;;;6.97;64.25;101219.59;4998157;28;45598;-86
2021/12/03 03:22:04;;;;;;;;;8.00;8.00;;;;;6.97;64.25;101220.50;5013412;28;58956;-84
2021/12/03 03:24:29;;;;;;;;;9.75;7.25;;;;;6.97;64.13;101222.22;5015888;28;61470;-86
2021/12/03 03:26:55;;;;;;;;;8.00;6.00;;;;;7.00;64.26;101223.22;4981832;28;66848;-85
2021/12/03 03:29:20;;;;;;;;;10.75;7.25;;;;;7.04;64.09;101230.38;4969244;28;59210;-84
2021/12/03 03:31:46;;;;;;;;;10.25;7.25;;;;;6.99;64.20;101226.69;4982877;28;45647;-84
2021/12/03 03:34:11;;;;;;;;;9.75;6.50;;;;;7.07;63.98;101232.19;4982376;28;46462;-85
2021/12/03 03:36:42;;;;;;;;;6.75;6.75;;;;;7.08;64.00;101239.22;4982890;28;46864;-84
2021/12/03 03:39:08;;;;;;;;;5.75;5.75;;;;;7.04;63.68;101229.47;4983284;28;45381;-83
2021/12/03 03:42:13;;;;;;;;;11.00;6.75;;;;;7.05;63.72;101234.78;4979514;28;45253;-84
2021/12/03 03:44:32;;;;;;;;;9.00;5.50;;;;;7.06;63.89;101233.03;4985707;28;47030;-84
2021/12/03 03:46:57;;;;;;;;;7.00;7.00;;;;;7.03;64.02;101235.53;4998860;28;45338;-86
2021/12/03 03:49:24;;;;;;;;;8.00;7.50;;;;;7.04;63.81;101238.25;4998370;28;45595;-84
2021/12/03 03:51:50;;;;;;;;;10.50;7.00;;;;;7.02;63.76;101232.03;4982403;28;45397;-84
2021/12/03 03:54:15;;;;;;;;;6.25;6.25;;;;;7.01;63.65;101242.50;4982170;28;46187;-85
2021/12/03 03:56:41;;;;;;;;;11.25;7.00;;;;;6.98;63.63;101226.66;4981780;28;47555;-85
2021/12/03 03:59:06;;;;;;;;;12.25;9.00;;;;;6.95;63.69;101222.19;4997738;28;45246;-84
2021/12/03 04:01:31;;;;;;;;;14.25;8.75;;;;;6.98;63.61;101221.41;4998500;28;55171;-84
2021/12/03 04:03:57;;;;;;;;;6.25;6.25;;;;;7.00;63.80;101222.34;5015912;28;61030;-84
2021/12/03 04:06:22;;;;;;;;;6.50;6.50;;;;;7.00;63.64;101220.59;4996325;28;45366;-83
2021/12/03 04:08:48;;;;;;;;;6.00;6.00;;;;;6.97;63.62;101214.34;4972116;28;45774;-85
2021/12/03 04:11:16;;;;;;;;;9.50;6.00;;;;;7.01;63.43;101221.50;4983406;28;45557;-84
2021/12/03 04:13:42;;;;;;;;;11.50;7.50;;;;;6.96;63.44;101202.97;4967753;28;45318;-84
2021/12/03 04:16:08;;;;;;;;;9.00;6.00;;;;;7.01;63.39;101205.75;4969044;28;45341;-84
2021/12/03 04:18:33;;;;;;;;;8.00;5.00;;;;;6.93;63.37;101188.88;4999754;28;46763;-84
2021/12/03 04:21:02;;;;;;;;;7.75;6.25;;;;;7.01;63.25;101206.63;4999589;28;45175;-83
2021/12/03 04:23:27;;;;;;;;;9.50;5.00;;;;;7.02;63.39;101195.28;4965588;28;46026;-85
2021/12/03 04:25:52;;;;;;;;;5.50;5.50;;;;;7.04;63.24;101208.47;4981486;28;58101;-85
2021/12/03 04:28:18;;;;;;;;;6.50;4.50;;;;;7.01;63.29;101217.13;4965878;28;45377;-85
2021/12/03 04:30:43;;;;;;;;;13.50;6.00;;;;;7.04;63.21;101224.22;4965657;28;45331;-85
2021/12/03 04:33:09;;;;;;;;;6.75;6.75;;;;;7.03;63.33;101217.16;4981498;28;62884;-84
2021/12/03 04:35:34;;;;;;;;;11.50;5.75;;;;;7.05;63.23;101203.25;4965567;28;45492;-84
2021/12/03 04:38:00;;;;;;;;;6.25;5.00;;;;;7.04;63.07;101196.22;5000079;28;45649;-83
2021/12/03 04:40:25;;;;;;;;;6.00;3.50;;;;;7.04;63.08;101203.22;4965640;28;45645;-84
2021/12/03 04:42:51;;;;;;;;;7.75;5.75;;;;;7.04;63.08;101203.22;4981215;28;46037;-83
2021/12/03 04:45:20;;;;;;;;;8.50;5.00;;;;;7.05;63.17;101202.38;4965724;28;45323;-85
2021/12/03 04:47:47;;;;;;;;;6.00;6.00;;;;;7.04;63.05;101212.00;5001192;28;45306;-85
2021/12/03 04:50:12;;;;;;;;;9.00;5.00;;;;;7.03;63.05;101197.09;4967843;28;45290;-84
2021/12/03 04:52:38;;;;;;;;;5.25;5.00;;;;;7.02;62.92;101200.53;4950330;28;50838;-85
2021/12/03 04:55:04;;;;;;;;;6.25;5.25;;;;;7.02;62.84;101204.88;4982019;28;45460;-84
2021/12/03 04:57:29;;;;;;;;;6.50;5.00;;;;;7.01;62.96;101209.25;4965445;28;45510;-85
2021/12/03 04:59:55;;;;;;;;;7.50;4.75;;;;;7.01;63.04;101208.38;4999167;28;54156;-84
2021/12/03 05:02:21;;;;;;;;;13.50;7.00;;;;;6.99;63.09;101200.44;4998584;28;65386;-83
2021/12/03 05:04:48;;;;;;;;;6.25;5.00;;;;;7.01;62.90;101201.38;4965940;28;45318;-83
2021/12/03 05:07:28;;;;;;;;;6.75;2.75;;;;;6.99;62.86;101182.06;4965821;28;45330;-83
2021/12/03 05:09:54;;;;;;;;;6.25;3.25;;;;;7.05;62.88;101186.63;4969272;28;46096;-85
2021/12/03 05:12:19;;;;;;;;;3.00;3.00;;;;;6.99;62.70;101170.69;4980740;28;46245;-84
2021/12/03 05:14:45;;;;;;;;;4.50;4.50;;;;;7.01;62.84;101154.13;4998206;28;60426;-84
2021/12/03 05:17:10;;;;;;;;;9.25;3.25;;;;;7.05;62.84;101161.25;4980986;28;45639;-84
2021/12/03 05:19:36;;;;;;;;;6.00;5.00;;;;;7.07;62.92;101156.94;4997732;28;47425;-84
2021/12/03 05:22:01;;;;;;;;;5.00;3.00;;;;;7.01;62.82;101146.25;4981391;28;45888;-84
2021/12/03 05:24:26;;;;;;;;;3.00;3.00;;;;;7.07;62.71;101166.53;4964246;28;58696;-85
2021/12/03 05:26:52;;;;;;;;;4.50;3.00;;;;;7.07;62.81;101156.03;4980539;28;45541;-84
2021/12/03 05:29:18;;;;;;;;;2.25;2.25;;;;;7.04;62.78;101150.72;4949155;28;45521;-84
2021/12/03 05:31:43;;;;;;;;;2.25;2.00;;;;;7.08;62.61;101156.09;4975193;28;47730;-86
2021/12/03 05:34:13;;;;;;;;;6.00;4.00;;;;;7.11;62.82;101151.78;4963184;28;45518;-84
2021/12/03 05:36:39;;;;;;;;;3.50;3.00;;;;;7.07;62.58;101142.91;4998616;28;45511;-86
2021/12/03 05:39:04;;;;;;;;;2.75;2.75;;;;;7.10;62.42;101137.75;4962689;28;45563;-89
2021/12/03 05:41:30;;;;;;;;;6.00;2.75;;;;;7.12;62.62;101149.19;4948908;28;47434;-89
2021/12/03 05:43:55;;;;;;;;;5.00;3.00;;;;;7.19;62.49;101148.56;4957377;28;50741;-89
2021/12/03 05:46:20;;;;;;;;;6.25;1.25;;;;;7.22;62.53;101146.00;4948392;28;45714;-84
2021/12/03 05:48:46;;;;;;;;;6.25;3.00;;;;;7.27;62.31;101146.13;4994040;28;56531;-88
2021/12/03 05:51:11;;;;;;;;;2.00;2.00;;;;;7.30;62.40;101141.00;4949016;28;48437;-86
2021/12/03 05:53:37;;;;;;;;;1.50;1.00;;;;;7.34;62.51;101143.72;4980406;28;59783;-90
2021/12/03 05:56:02;;;;;;;;;2.00;2.00;;;;;7.40;62.14;101128.97;4979580;28;55018;-86
2021/12/03 05:58:28;;;;;;;;;2.00;2.00;;;;;7.43;62.12;101123.84;4965546;28;45540;-83
2021/12/03 06:00:53;;;;;;;;;2.00;2.00;;;;;7.41;61.81;101102.78;4980251;28;58910;-81
2021/12/03 06:03:18;;;;;;;;;3.75;3.00;;;;;7.48;61.89;101104.72;4977373;28;49034;-84
2021/12/03 06:05:44;;;;;;;;;5.25;2.00;;;;;7.46;61.70;101101.16;4979175;28;61101;-82
2021/12/03 06:08:09;;;;;;;;;4.50;2.00;;;;;7.52;61.82;101100.44;4997612;28;49495;-82
2021/12/03 06:10:35;;;;;;;;;3.50;2.00;;;;;7.52;61.99;101103.97;4980132;28;45726;-82
2021/12/03 06:13:00;;;;;;;;;4.00;2.50;;;;;7.53;60.87;101113.63;5014902;28;45483;-82
2021/12/03 06:15:26;;;;;;;;;2.00;2.00;;;;;7.52;61.63;101106.59;4998968;28;56865;-83
2021/12/03 06:17:51;;;;;;;;;3.50;2.00;;;;;7.54;61.20;101117.13;4999147;28;46864;-78
2021/12/03 06:20:17;;;;;;;;;6.00;3.00;;;;;7.43;60.38;101126.47;5015965;28;70572;-78
2021/12/03 06:22:42;;;;;;;;;5.25;5.00;;;;;7.29;60.92;101123.41;5001013;28;46707;-78
2021/12/03 06:25:09;;;;;;;;;3.00;2.25;;;;;7.15;61.17;101128.28;5017032;28;58465;-77
2021/12/03 06:27:34;;;;;;;;;3.00;3.00;;;;;6.94;61.04;101112.78;5014443;28;45582;-77
2021/12/03 06:30:00;;;;;;;;;4.50;2.75;;;;;6.87;62.15;101123.03;4999163;28;45625;-77
2021/12/03 06:32:25;;;;;;;;;2.75;1.25;;;;;6.81;62.02;101137.75;5012066;28;66693;-77
2021/12/03 06:34:51;;;;;;;;;1.75;1.75;;;;;6.76;62.37;101131.47;5023835;28;56912;-76
2021/12/03 06:37:16;;;;;;;;;4.25;1.00;;;;;6.77;62.33;101120.16;5018574;28;45593;-86
2021/12/03 06:39:42;;;;;;;;;3.00;3.00;;;;;6.82;62.53;101125.53;4999413;28;55205;-83
2021/12/03 06:42:07;;;;;;;;;2.50;2.00;;;;;6.90;62.39;101123.13;5017455;28;46917;-82
2021/12/03 06:44:32;;;;;;;;;4.75;4.00;;;;;6.90;62.27;101131.03;4999933;28;45358;-85
2021/12/03 06:47:00;;;;;;;;;6.75;2.25;;;;;7.00;62.28;101130.44;4998870;28;45558;-82
2021/12/03 06:49:28;;;;;;;;;6.00;2.00;;;;;7.03;62.08;101120.03;5007460;28;47118;-85
2021/12/03 06:51:58;;;;;;;;;4.50;2.00;;;;;7.09;62.04;101125.50;5005126;28;45554;-82
2021/12/03 06:54:26;;;;;;;;;5.50;1.00;;;;;7.13;61.96;101121.19;4984528;28;45344;-83
2021/12/03 06:56:52;;;;;;;;;4.00;2.25;;;;;7.14;62.15;101123.88;5009268;28;45538;-84
2021/12/03 06:59:19;;;;;;;;;4.50;2.00;;;;;7.22;61.93;101124.09;4996604;28;46369;-84
2021/12/03 07:01:44;;;;;;;;;6.25;2.00;;;;;7.19;61.23;101111.78;4972249;28;45402;-85
2021/12/03 07:04:10;;;;;;;;;5.75;2.75;;;;;7.27;61.56;101115.50;4974801;28;55012;-84
2021/12/03 07:06:35;;;;;;;;;2.00;2.00;;;;;7.27;61.83;101109.38;5006584;28;45551;-80
2021/12/03 07:09:01;;;;;;;;;5.50;2.00;;;;;7.33;61.61;101110.44;5002686;28;57207;-87
2021/12/03 07:11:26;;;;;;;;;6.50;4.50;;;;;7.33;61.82;101107.78;4990161;28;61235;-84
2021/12/03 07:13:51;;;;;;;;;5.00;5.00;;;;;7.38;61.44;101101.78;4993813;28;55796;-84
2021/12/03 07:16:17;;;;;;;;;5.75;2.50;;;;;7.44;61.35;101105.47;5016218;28;45490;-78
2021/12/03 07:18:45;;;;;;;;;2.75;2.75;;;;;7.47;61.35;101096.81;5013776;28;46401;-79
2021/12/03 07:21:10;;;;;;;;;4.00;2.50;;;;;7.45;61.47;101083.59;5015109;28;46531;-79
2021/12/03 07:23:36;;;;;;;;;4.50;1.00;;;;;7.51;61.43;101093.38;5014775;28;57914;-76
2021/12/03 07:26:02;;;;;;;;;5.00;2.75;;;;;7.50;61.49;101089.88;5018464;28;52112;-77
2021/12/03 07:28:29;;;;;;;;;5.75;2.00;;;;;7.50;61.33;101081.09;4993380;28;47230;-77
2021/12/03 07:30:54;;;;;;;;;3.00;3.00;;;;;7.46;61.10;101090.66;5016813;28;45468;-79
2021/12/03 07:33:20;;;;;;;;;2.25;2.25;;;;;7.50;61.23;101095.13;5009570;28;45780;-80
2021/12/03 07:35:46;;;;;;;;;5.50;2.25;;;;;7.53;61.26;101096.97;5011994;28;45806;-79
2021/12/03 07:38:12;;;;;;;;;5.00;3.00;;;;;7.53;61.07;101097.84;5015177;28;46492;-79
2021/12/03 07:40:37;;;;;;;;;4.00;2.00;;;;;7.52;60.93;101093.47;5012001;28;45517;-79
2021/12/03 07:43:03;;;;;;;;;4.00;1.25;;;;;7.53;60.76;101087.34;5014371;28;56540;-79
2021/12/03 07:45:28;;;;;;;;;2.00;1.50;;;;;7.47;60.84;101089.81;4989675;28;45372;-79
2021/12/03 07:47:54;;;;;;;;;2.00;2.00;;;;;7.53;60.87;101099.59;5014691;28;45980;-79
2021/12/03 07:50:19;;;;;;;;;3.00;2.00;;;;;7.53;60.90;101100.47;5012901;28;64215;-80
2021/12/03 07:52:44;;;;;;;;;6.75;2.00;;;;;7.52;60.45;101106.59;5013562;28;45606;-79
2021/12/03 07:55:10;;;;;;;;;4.00;2.00;;;;;7.51;60.24;101107.44;5001867;28;45493;-79
2021/12/03 07:57:35;;;;;;;;;5.75;1.00;;;;;7.51;60.40;101099.56;5000019;28;59352;-79
2021/12/03 08:00:01;;;;;;;;;2.50;1.25;;;;;7.52;60.46;101100.44;5017943;28;45440;-79
2021/12/03 08:02:29;;;;;;;;;2.75;2.75;;;;;7.53;60.44;101096.97;4998187;28;45593;-79
2021/12/03 08:04:54;;;;;;;;;1.00;1.00;;;;;7.53;60.07;101100.47;5014097;28;45462;-80
2021/12/03 08:07:20;;;;;;;;;2.00;1.00;;;;;7.54;60.24;101104.00;5014408;28;46506;-80
2021/12/03 08:09:45;;;;;;;;;2.00;2.00;;;;;7.55;60.35;101098.78;5013080;28;61869;-81
2021/12/03 08:12:11;;;;;;;;;9.00;3.50;;;;;7.54;60.15;101099.63;4989332;28;45829;-82
2021/12/03 08:14:36;;;;;;;;;2.00;2.00;;;;;7.54;60.24;101088.22;4995159;28;45647;-81
2021/12/03 08:17:02;;;;;;;;;2.25;1.50;;;;;7.57;59.83;101089.22;5014256;28;65180;-82
2021/12/03 08:19:27;;;;;;;;;3.00;1.75;;;;;7.59;60.09;101082.25;5018035;28;45499;-81
2021/12/03 08:21:52;;;;;;;;;2.75;1.25;;;;;7.63;59.95;101090.22;5018605;28;45444;-82
2021/12/03 08:24:18;;;;;;;;;3.00;2.00;;;;;7.60;60.02;101083.13;5018264;28;47252;-79
2021/12/03 08:26:43;;;;;;;;;3.00;2.50;;;;;7.61;60.06;101077.91;5014574;28;46396;-80
2021/12/03 08:29:09;;;;;;;;;3.50;1.00;;;;;7.60;60.00;101078.78;4997623;28;57636;-80
2021/12/03 08:31:34;;;;;;;;;1.00;1.00;;;;;7.73;60.43;101093.16;5017212;28;45528;-79
2021/12/03 08:33:59;;;;;;;;;4.00;2.25;;;;;7.76;59.90;101082.69;4998585;28;48634;-79
2021/12/03 08:36:25;;;;;;;;;2.00;2.00;;;;;7.80;60.07;101094.19;5017820;28;47372;-79
2021/12/03 08:38:50;;;;;;;;;4.25;1.00;;;;;7.83;59.77;101089.91;5016612;28;58987;-80
2021/12/03 08:41:19;;;;;;;;;2.00;2.00;;;;;7.84;59.53;101089.06;5010537;28;45645;-82
2021/12/03 08:43:45;;;;;;;;;2.75;2.00;;;;;7.88;59.52;101079.50;4984599;28;45268;-82
2021/12/03 08:46:16;;;;;;;;;2.75;2.00;;;;;7.86;59.29;101076.84;4997971;28;46626;-80
2021/12/03 08:48:45;;;;;;;;;5.00;2.00;;;;;7.92;59.39;101096.25;4992462;28;45368;-82
2021/12/03 08:51:24;;;;;;;;;1.00;1.00;;;;;7.92;59.56;101101.50;5000476;28;45463;-82
2021/12/03 08:56:26;;;;;;;;;3.00;2.00;;;;;7.87;59.08;101089.13;5017374;28;46416;-80
2021/12/03 08:58:52;;;;;;;;;3.00;2.00;;;;;7.88;58.90;101085.66;4998415;28;45473;-80
2021/12/03 09:01:17;;;;;;;;;2.50;2.50;;;;;7.90;59.14;101082.19;4993161;28;58886;-81
2021/12/03 09:03:43;;;;;;;;;3.50;3.00;;;;;7.92;58.45;101093.63;5014604;28;45738;-79
2021/12/03 09:06:08;;;;;;;;;2.50;2.00;;;;;7.94;59.21;101095.44;4986639;28;46178;-82
2021/12/03 09:08:33;;;;;;;;;8.00;3.00;;;;;7.95;58.97;101094.59;5017781;28;50762;-80
2021/12/03 09:10:59;;;;;;;;;3.75;3.00;;;;;7.97;59.21;101106.03;5007716;28;49361;-80
2021/12/03 09:13:24;;;;;;;;;6.00;5.00;;;;;8.01;59.20;101091.22;4984377;28;45314;-82
2021/12/03 09:16:06;;;;;;;;;5.75;3.00;;;;;7.98;59.15;101083.25;5003427;28;62744;-79
2021/12/03 09:23:37;;;;;;;;;6.50;5.25;;;;;8.00;59.49;101076.31;4994468;28;45628;-80
2021/12/03 09:26:14;;;;;;;;;6.00;6.00;;;;;7.94;59.58;101052.50;4996466;28;47613;-80
2021/12/03 09:28:42;;;;;;;;;9.75;3.00;;;;;8.06;59.53;101073.84;4964620;28;45485;-80
2021/12/03 09:31:10;;;;;;;;;6.00;3.00;;;;;8.07;60.15;101065.97;4996870;28;45481;-80
2021/12/03 09:33:37;;;;;;;;;8.25;6.75;;;;;8.11;59.83;101059.94;4976554;28;45511;-79
2021/12/03 09:36:04;;;;;;;;;6.00;3.50;;;;;8.13;59.55;101057.34;4991696;28;47777;-79
2021/12/03 09:38:34;;;;;;;;;10.00;5.75;;;;;8.13;60.07;101058.22;4999967;28;45318;-79
2021/12/03 09:41:06;;;;;;;;;6.00;3.00;;;;;8.17;60.36;101047.78;4986564;28;45500;-79
2021/12/03 09:43:33;;;;;;;;;5.50;3.00;;;;;8.17;60.13;101045.16;4975301;28;46381;-79
2021/12/03 09:46:04;;;;;;;;;8.25;3.00;;;;;8.19;60.35;101053.97;4991577;28;46461;-78
2021/12/03 09:48:58;;;;;;;;;5.50;2.50;;;;;8.14;60.51;101033.69;4980531;28;45513;-78
2021/12/03 09:51:15;;;;;;;;;5.00;5.00;;;;;8.20;60.44;101040.84;4966629;28;45661;-78
2021/12/03 09:56:26;;;;;;;;;6.50;5.25;;;;;8.22;60.69;101033.91;4997771;28;45319;-79
2021/12/03 10:12:39;;;;;;;;;6.00;6.00;;;;;8.22;61.96;101044.41;5138094;22;45439;-80
2021/12/03 10:15:33;;;;;;;;;6.50;5.50;;;;;8.21;62.04;101024.25;5013307;28;45340;-80
2021/12/03 10:18:06;;;;;;;;;7.00;5.00;;;;;8.15;62.29;101018.84;4991095;28;45605;-80
2021/12/03 10:48:10;;;;;;;;;2.25;2.25;;;;;7.84;66.60;100941.84;4993084;28;45538;-79
2021/12/03 10:53:17;;;;;;;;;7.00;4.50;;;;;7.84;71.72;100944.47;5015327;28;45637;-78
2021/12/03 11:01:34;;;;;;;;;4.50;4.50;;;;;7.75;68.65;100946.88;5014484;28;45383;-77
2021/12/03 11:12:23;;;;;;;;;2.50;2.50;;;;;7.60;68.57;100929.00;5019515;28;45742;-78
2021/12/03 12:04:33;;;;;;;;;2.50;1.25;;;;;7.58;69.11;100782.69;5016823;28;45238;-77
2021/12/03 14:13:08;;;;;;;;;5.00;2.25;;;;;7.72;69.25;100605.13;4994339;28;47068;-78
2021/12/03 14:16:17;;;;;;;;;5.00;5.00;;;;;7.71;69.26;100587.59;5001213;28;45631;-79
2021/12/03 14:28:15;;;;;;;;;5.75;2.00;;;;;7.77;69.36;100576.31;5013593;28;45309;-77
2021/12/03 14:33:21;;;;;;;;;2.00;2.00;;;;;7.77;69.63;100558.81;4998290;28;45550;-79
2021/12/03 14:40:17;;;;;;;;;4.00;2.00;;;;;7.81;69.63;100557.13;5009001;28;45576;-80
2021/12/03 14:56:40;;;;;;;;;3.50;2.00;;;;;7.89;69.85;100523.97;5017401;28;45567;-79
2021/12/03 14:59:09;;;;;;;;;2.00;1.75;;;;;7.86;69.91;100510.78;4996797;28;45531;-80
2021/12/03 15:01:55;;;;;;;;;1.75;1.75;;;;;7.90;69.84;100511.72;4996478;28;45759;-81
2021/12/03 15:07:22;;;;;;;;;3.50;2.00;;;;;7.92;70.08;100516.13;5014669;28;45449;-80
2021/12/03 15:09:47;;;;;;;;;5.00;1.25;;;;;7.93;69.83;100503.88;5006674;28;45398;-80
2021/12/03 15:25:27;;;;;;;;;1.50;1.50;;;;;7.99;70.04;100498.69;5015252;28;45326;-79
2021/12/03 15:28:38;;;;;;;;;0.00;0.00;;;;;8.04;70.16;100500.56;5007343;28;45364;-78
2021/12/03 16:24:19;;;;;;;;;2.00;2.00;;;;;8.23;70.67;100388.63;5021152;28;45455;-79
2021/12/03 16:45:21;;;;;;;;;3.00;1.50;;;;;8.34;70.63;100358.09;5016604;28;45587;-77
2021/12/03 16:53:24;;;;;;;;;2.25;2.00;;;;;8.36;70.41;100351.16;4988283;28;45335;-78
2021/12/03 16:56:24;;;;;;;;;2.00;2.00;;;;;8.39;70.59;100337.13;5018526;28;45646;-78
2021/12/03 16:58:41;;;;;;;;;10.50;6.25;;;;;8.40;70.64;100329.25;5008586;28;46378;-77
2021/12/03 17:01:14;;;;;;;;;5.25;1.75;;;;;8.40;70.52;100328.38;5018328;28;45340;-78
2021/12/03 17:14:10;;;;;;;;;9.50;7.25;;;;;8.45;71.37;100304.75;5019085;28;45460;-77
2021/12/03 17:25:08;;;;;;;;;2.75;2.75;;;;;8.34;73.36;100305.47;5011454;28;45365;-78
2021/12/03 17:51:36;;;;;;;;;5.75;3.00;;;;;8.21;77.93;100266.78;5007233;28;46558;-79
2021/12/03 17:54:59;;;;;;;;;7.00;5.50;;;;;8.22;78.19;100260.63;5005804;28;45489;-79
2021/12/03 17:56:46;;;;;;;;;5.00;5.00;;;;;8.24;78.29;100244.88;4982386;28;45505;-81
2021/12/03 17:59:17;;;;;;;;;5.25;5.25;;;;;8.24;78.51;100247.50;4981936;28;45439;-80
2021/12/03 18:01:50;;;;;;;;;5.00;5.00;;;;;8.23;77.22;100227.34;5016575;28;46248;-79
2021/12/03 18:10:03;;;;;;;;;7.00;5.50;;;;;8.14;82.90;100214.94;5012762;28;45487;-83
2021/12/03 18:55:15;;;;;;;;;13.75;11.50;;;;;8.23;79.89;100109.88;5015190;28;45563;-81
2021/12/03 18:57:44;;;;;;;;;11.25;11.25;;;;;8.30;79.78;100116.94;5015989;28;45489;-80
2021/12/03 19:00:12;;;;;;;;;13.50;11.75;;;;;8.34;80.18;100123.97;4998217;28;45415;-78
2021/12/03 19:02:39;;;;;;;;;12.00;10.00;;;;;8.34;80.44;100123.97;4995829;28;45460;-77
2021/12/03 19:05:15;;;;;;;;;10.00;10.00;;;;;8.37;80.19;100121.44;4995626;28;46211;-78
2021/12/03 19:10:08;;;;;;;;;11.00;10.00;;;;;8.40;78.92;100110.91;5012252;28;45361;-76
2021/12/03 19:12:37;;;;;;;;;11.50;11.00;;;;;8.42;79.00;100113.59;5011689;28;45583;-77